Terminal Aerodrome Forecast
Issued by NWS Aberdeen, SD

Home | Current Version | Previous Version | Text Only | Print | Product List | Glossary On
Versions: 1 2 3 4 5 6 7 8 9 10 11 12 13 14 15 16 17 18 19 20 21 22 23 24 25 26 27 28 29 30 31 32 33 34 35
000
FTAK31 PAFA 232339
TAFABR
TAF
PABR 232339Z 2400/2424 04015KT P6SM -RA BKN008 OVC030
     FM240800 02012KT 6SM BR OVC006
     FM241200 01012KT 4SM -DZSN BR OVC004
     FM242000 36010KT 6SM BR OVC007=

USA.gov is the U.S. government's official web portal to all federal, state and local government web resources and services.